Time;durP1;ratioP1;P1;durP2;ratioP2;P2;SDS_P1;SDS_P2;PMS_P1;PMS_P2;Temp;Humidity;BMP_temperature;BMP_pressure;BME280_temperature;BME280_humidity;BME280_pressure;Samples;Min_cycle;Max_cycle;Signal;HPM_P1;HPM_P2
2023/11/16 00:01:19;;;;;;;13.40;8.38;;;;;;;;;;5043066;28;20090;-61
2023/11/16 00:03:45;;;;;;;11.48;7.88;;;;;;;;;;5017161;28;20045;-61
2023/11/16 00:06:12;;;;;;;15.40;8.68;;;;;;;;;;5016237;28;20302;-61
2023/11/16 00:08:38;;;;;;;12.43;8.68;;;;;;;;;;5015570;28;20171;-63
2023/11/16 00:11:05;;;;;;;13.63;8.38;;;;;;;;;;5014973;28;20026;-62
2023/11/16 00:13:32;;;;;;;15.57;9.85;;;;;;;;;;5019794;28;20025;-61
2023/11/16 00:15:58;;;;;;;18.08;9.32;;;;;;;;;;5019511;28;20029;-61
2023/11/16 00:18:26;;;;;;;17.42;9.50;;;;;;;;;;5013038;28;22018;-65
2023/11/16 00:20:55;;;;;;;17.65;8.57;;;;;;;;;;5016672;28;20064;-60
2023/11/16 00:23:22;;;;;;;12.35;8.50;;;;;;;;;;5017356;28;20346;-60
2023/11/16 00:25:48;;;;;;;12.20;8.10;;;;;;;;;;5018898;28;20072;-61
2023/11/16 00:28:16;;;;;;;13.60;7.82;;;;;;;;;;5012331;28;20136;-61
2023/11/16 00:30:42;;;;;;;10.70;7.80;;;;;;;;;;5011998;28;20033;-62
2023/11/16 00:33:09;;;;;;;16.52;7.88;;;;;;;;;;5020655;28;20033;-60
2023/11/16 00:35:35;;;;;;;13.45;7.60;;;;;;;;;;5020096;28;20383;-61
2023/11/16 00:38:02;;;;;;;18.38;7.85;;;;;;;;;;5014541;28;20041;-61
2023/11/16 00:40:32;;;;;;;13.68;8.70;;;;;;;;;;5016456;28;20470;-60
2023/11/16 00:42:58;;;;;;;17.63;9.23;;;;;;;;;;5013383;28;20025;-61
2023/11/16 00:45:24;;;;;;;16.00;9.15;;;;;;;;;;5017392;28;20041;-61
2023/11/16 00:47:50;;;;;;;14.30;9.00;;;;;;;;;;5012033;28;20034;-61
2023/11/16 00:50:16;;;;;;;18.73;8.85;;;;;;;;;;5016340;28;20033;-63
2023/11/16 00:52:46;;;;;;;16.85;9.35;;;;;;;;;;5020280;28;20063;-62
2023/11/16 00:55:12;;;;;;;14.43;9.40;;;;;;;;;;5017313;28;20037;-61
2023/11/16 00:57:38;;;;;;;14.20;8.98;;;;;;;;;;5018034;28;20034;-62
2023/11/16 01:00:10;;;;;;;20.15;8.70;;;;;;;;;;5013530;28;20026;-62
2023/11/16 01:02:36;;;;;;;19.45;10.10;;;;;;;;;;5013465;28;20060;-61
2023/11/16 01:05:04;;;;;;;19.02;8.55;;;;;;;;;;5042620;28;20033;-62
2023/11/16 01:07:30;;;;;;;17.88;9.13;;;;;;;;;;5015576;28;20040;-61
2023/11/16 01:10:03;;;;;;;16.02;9.18;;;;;;;;;;5013337;28;20026;-64
2023/11/16 01:12:29;;;;;;;17.20;10.05;;;;;;;;;;5036144;28;20087;-62
2023/11/16 01:14:59;;;;;;;12.10;8.50;;;;;;;;;;5041147;28;20411;-61
2023/11/16 01:17:32;;;;;;;15.88;9.35;;;;;;;;;;5034982;28;20645;-61
2023/11/16 01:20:04;;;;;;;19.25;9.50;;;;;;;;;;5038252;28;20033;-61
2023/11/16 01:22:40;;;;;;;22.13;10.27;;;;;;;;;;5039488;28;20075;-62
2023/11/16 01:25:14;;;;;;;13.93;10.02;;;;;;;;;;5012933;28;20030;-63
2023/11/16 01:27:43;;;;;;;17.60;9.20;;;;;;;;;;5022172;28;20036;-62
2023/11/16 01:30:12;;;;;;;16.38;9.98;;;;;;;;;;5032965;28;20041;-61
2023/11/16 01:32:38;;;;;;;18.02;9.25;;;;;;;;;;5035709;28;20028;-61
2023/11/16 01:35:05;;;;;;;19.58;10.35;;;;;;;;;;5036574;28;20028;-60
2023/11/16 01:37:31;;;;;;;15.00;8.57;;;;;;;;;;5037786;28;20032;-61
2023/11/16 01:39:57;;;;;;;16.33;9.52;;;;;;;;;;5036714;28;20031;-61
2023/11/16 01:42:23;;;;;;;15.25;8.65;;;;;;;;;;5031094;28;20018;-61
2023/11/16 01:44:50;;;;;;;17.48;8.30;;;;;;;;;;5034445;28;20040;-60
2023/11/16 01:47:16;;;;;;;19.00;8.23;;;;;;;;;;5037680;28;20098;-62
2023/11/16 01:49:45;;;;;;;11.48;7.68;;;;;;;;;;5036427;28;20071;-64
2023/11/16 01:52:14;;;;;;;10.65;6.70;;;;;;;;;;5035647;28;20040;-63
2023/11/16 01:54:41;;;;;;;9.85;7.05;;;;;;;;;;5038425;28;20033;-61
2023/11/16 01:57:07;;;;;;;13.68;6.80;;;;;;;;;;5031201;28;20423;-61
2023/11/16 01:59:34;;;;;;;15.27;6.70;;;;;;;;;;5037447;28;20037;-61
2023/11/16 02:02:00;;;;;;;11.35;7.20;;;;;;;;;;5031643;28;20030;-61
2023/11/16 02:04:27;;;;;;;11.85;7.65;;;;;;;;;;5042686;28;20044;-61
2023/11/16 02:06:54;;;;;;;15.40;7.15;;;;;;;;;;5034959;28;20032;-62
2023/11/16 02:09:21;;;;;;;14.82;8.00;;;;;;;;;;5038486;28;20045;-60
2023/11/16 02:11:47;;;;;;;12.00;8.23;;;;;;;;;;5036680;28;20068;-61
2023/11/16 02:14:14;;;;;;;13.77;8.13;;;;;;;;;;5038833;28;20036;-61
2023/11/16 02:16:40;;;;;;;12.80;7.50;;;;;;;;;;5039400;28;20029;-61
2023/11/16 02:19:21;;;;;;;10.80;8.52;;;;;;;;;;5021852;28;20025;-60
2023/11/16 02:21:47;;;;;;;16.90;8.38;;;;;;;;;;5033542;28;20029;-61
2023/11/16 02:24:13;;;;;;;16.98;9.40;;;;;;;;;;5042856;28;20414;-61
2023/11/16 02:26:42;;;;;;;13.55;8.45;;;;;;;;;;5036100;28;20037;-61
2023/11/16 02:29:09;;;;;;;12.45;9.00;;;;;;;;;;5036479;28;20574;-60
2023/11/16 02:31:35;;;;;;;12.23;8.45;;;;;;;;;;5014098;28;20025;-68
2023/11/16 02:34:02;;;;;;;16.15;10.27;;;;;;;;;;5038417;28;20033;-61
2023/11/16 02:36:28;;;;;;;14.65;9.60;;;;;;;;;;5047360;28;20368;-63
2023/11/16 02:38:54;;;;;;;16.95;9.80;;;;;;;;;;5041323;28;20419;-62
2023/11/16 02:41:20;;;;;;;15.07;8.93;;;;;;;;;;5047642;28;20486;-63
2023/11/16 02:43:48;;;;;;;15.18;8.43;;;;;;;;;;5040192;28;20025;-61
2023/11/16 02:46:15;;;;;;;13.15;9.07;;;;;;;;;;5039666;28;20119;-62
2023/11/16 02:48:42;;;;;;;15.45;9.40;;;;;;;;;;5025522;28;20037;-61
2023/11/16 02:51:08;;;;;;;17.38;9.18;;;;;;;;;;5037448;28;20043;-61
2023/11/16 02:53:35;;;;;;;19.85;10.43;;;;;;;;;;5039896;28;20083;-61
2023/11/16 02:56:03;;;;;;;16.65;10.45;;;;;;;;;;5038691;28;20029;-65
2023/11/16 02:58:30;;;;;;;15.40;9.15;;;;;;;;;;5033553;28;20135;-61
2023/11/16 03:00:56;;;;;;;15.40;9.32;;;;;;;;;;5039548;28;20502;-62
2023/11/16 03:03:23;;;;;;;17.00;10.82;;;;;;;;;;5034921;28;20336;-60
2023/11/16 03:05:49;;;;;;;16.30;9.90;;;;;;;;;;5036549;28;20037;-62
2023/11/16 03:08:17;;;;;;;17.02;9.30;;;;;;;;;;5032855;28;20455;-60
2023/11/16 03:10:43;;;;;;;16.05;9.23;;;;;;;;;;5035021;28;20029;-61
2023/11/16 03:13:16;;;;;;;14.82;9.70;;;;;;;;;;5036433;28;20025;-61
2023/11/16 03:15:42;;;;;;;19.23;9.82;;;;;;;;;;5038917;28;20021;-61
2023/11/16 03:18:08;;;;;;;18.88;10.68;;;;;;;;;;5043984;28;20360;-60
2023/11/16 03:20:35;;;;;;;13.98;9.82;;;;;;;;;;5040762;28;20059;-60
2023/11/16 03:23:01;;;;;;;14.10;9.10;;;;;;;;;;5038444;28;20044;-61
2023/11/16 03:25:29;;;;;;;13.45;9.25;;;;;;;;;;5035871;28;20124;-62
2023/11/16 03:27:55;;;;;;;18.48;8.38;;;;;;;;;;5040772;28;20044;-60
2023/11/16 03:30:22;;;;;;;13.00;7.63;;;;;;;;;;5035614;28;20107;-60
2023/11/16 03:32:48;;;;;;;14.77;8.35;;;;;;;;;;5034718;28;20017;-60
2023/11/16 03:35:15;;;;;;;13.73;8.45;;;;;;;;;;5037250;28;20034;-61
2023/11/16 03:37:43;;;;;;;14.10;7.35;;;;;;;;;;5039429;28;20418;-61
2023/11/16 03:40:09;;;;;;;12.55;7.55;;;;;;;;;;5034300;28;20033;-61
2023/11/16 03:42:36;;;;;;;12.02;7.70;;;;;;;;;;5035147;28;20132;-61
2023/11/16 03:45:02;;;;;;;14.88;7.60;;;;;;;;;;5038354;28;20029;-61
2023/11/16 03:47:29;;;;;;;14.52;8.70;;;;;;;;;;5037409;28;20771;-61
2023/11/16 03:49:57;;;;;;;16.65;9.52;;;;;;;;;;5029349;28;20128;-60
2023/11/16 03:52:23;;;;;;;14.75;8.75;;;;;;;;;;5038270;28;20783;-61
2023/11/16 03:54:52;;;;;;;14.50;8.60;;;;;;;;;;5043143;28;20090;-62
2023/11/16 03:57:18;;;;;;;14.70;9.82;;;;;;;;;;5043855;28;20498;-61
2023/11/16 03:59:44;;;;;;;13.65;9.52;;;;;;;;;;5042680;28;20025;-61
2023/11/16 04:02:10;;;;;;;13.57;8.65;;;;;;;;;;5015770;28;20029;-61
2023/11/16 04:04:36;;;;;;;16.20;9.10;;;;;;;;;;5033654;28;20061;-61
2023/11/16 04:07:02;;;;;;;16.10;9.25;;;;;;;;;;5036757;28;20056;-61
2023/11/16 04:09:28;;;;;;;15.35;8.52;;;;;;;;;;5032444;28;20032;-61
2023/11/16 04:11:54;;;;;;;15.80;8.88;;;;;;;;;;5028446;28;20037;-61
2023/11/16 04:14:20;;;;;;;16.83;8.90;;;;;;;;;;5019707;28;20031;-61
2023/11/16 04:16:52;;;;;;;14.70;9.77;;;;;;;;;;5040727;28;20029;-59
2023/11/16 04:19:18;;;;;;;15.95;10.30;;;;;;;;;;5032532;28;20043;-61
2023/11/16 04:21:44;;;;;;;17.33;9.75;;;;;;;;;;5030794;28;20071;-61
2023/11/16 04:24:11;;;;;;;20.55;10.10;;;;;;;;;;5030674;28;20627;-61
2023/11/16 04:26:38;;;;;;;20.25;10.18;;;;;;;;;;5018708;28;20494;-61
2023/11/16 04:29:05;;;;;;;16.65;10.00;;;;;;;;;;5008120;28;20040;-63
2023/11/16 04:31:31;;;;;;;16.23;9.82;;;;;;;;;;5037535;28;20063;-61
2023/11/16 04:33:57;;;;;;;21.05;10.32;;;;;;;;;;5015751;28;20514;-61
2023/11/16 04:36:24;;;;;;;15.23;9.20;;;;;;;;;;5038658;28;20024;-60
2023/11/16 04:38:56;;;;;;;16.65;9.23;;;;;;;;;;5040316;28;20029;-61
2023/11/16 04:41:26;;;;;;;19.38;9.35;;;;;;;;;;5033787;28;20312;-60
2023/11/16 04:43:54;;;;;;;13.48;8.60;;;;;;;;;;5036987;28;20032;-61
2023/11/16 04:46:21;;;;;;;18.08;9.35;;;;;;;;;;5029405;28;20041;-60
2023/11/16 04:48:47;;;;;;;14.07;9.02;;;;;;;;;;5031736;28;20079;-60
2023/11/16 04:51:17;;;;;;;19.77;10.15;;;;;;;;;;5021123;28;20029;-61
2023/11/16 04:53:43;;;;;;;16.67;8.35;;;;;;;;;;5031822;28;20811;-61
2023/11/16 04:56:10;;;;;;;14.75;9.63;;;;;;;;;;5037686;28;20033;-61
2023/11/16 04:58:36;;;;;;;15.18;9.20;;;;;;;;;;5034244;28;20489;-61
2023/11/16 05:01:03;;;;;;;14.50;9.70;;;;;;;;;;5033908;28;20037;-60
2023/11/16 05:03:29;;;;;;;22.02;9.00;;;;;;;;;;5031227;28;20053;-60
2023/11/16 05:05:56;;;;;;;12.77;9.60;;;;;;;;;;5016361;28;20048;-60
2023/11/16 05:08:22;;;;;;;17.63;8.55;;;;;;;;;;5034084;28;20063;-60
2023/11/16 05:10:48;;;;;;;14.90;8.50;;;;;;;;;;5038310;28;20037;-60
2023/11/16 05:13:16;;;;;;;17.95;9.68;;;;;;;;;;5032491;28;20459;-60
2023/11/16 05:15:45;;;;;;;21.50;9.77;;;;;;;;;;5036962;28;20029;-61
2023/11/16 05:18:11;;;;;;;12.77;8.48;;;;;;;;;;5030644;28;20036;-60
2023/11/16 05:20:37;;;;;;;12.63;8.73;;;;;;;;;;5015360;28;20036;-61
2023/11/16 05:23:04;;;;;;;16.08;8.90;;;;;;;;;;5035790;28;20040;-61
2023/11/16 05:25:30;;;;;;;14.30;8.80;;;;;;;;;;5040083;28;20041;-61
2023/11/16 05:27:56;;;;;;;16.98;8.82;;;;;;;;;;5021946;28;20040;-61
2023/11/16 05:30:22;;;;;;;11.68;8.18;;;;;;;;;;5040920;28;20568;-60
2023/11/16 05:32:49;;;;;;;13.68;8.20;;;;;;;;;;5040025;28;20078;-62
2023/11/16 05:35:15;;;;;;;17.02;9.93;;;;;;;;;;5035666;28;20040;-61
2023/11/16 05:37:41;;;;;;;13.57;8.90;;;;;;;;;;5035882;28;20108;-61
2023/11/16 05:40:07;;;;;;;13.23;8.05;;;;;;;;;;5035812;28;20051;-61
2023/11/16 05:42:33;;;;;;;15.32;8.00;;;;;;;;;;5019860;28;20028;-61
2023/11/16 05:45:00;;;;;;;15.80;8.85;;;;;;;;;;5016283;28;20396;-61
2023/11/16 05:47:26;;;;;;;14.07;8.90;;;;;;;;;;5037543;28;20029;-62
2023/11/16 05:49:52;;;;;;;14.30;9.25;;;;;;;;;;5041817;28;20029;-66
2023/11/16 05:52:18;;;;;;;18.17;9.05;;;;;;;;;;5041081;28;20033;-61
2023/11/16 05:54:46;;;;;;;13.90;9.05;;;;;;;;;;5032929;28;20572;-61
2023/11/16 05:57:14;;;;;;;16.98;8.27;;;;;;;;;;5048148;28;20039;-60
2023/11/16 05:59:40;;;;;;;10.45;7.90;;;;;;;;;;5041473;28;20029;-60
2023/11/16 06:02:07;;;;;;;18.10;8.27;;;;;;;;;;5040460;28;20029;-61
2023/11/16 06:04:33;;;;;;;12.07;8.13;;;;;;;;;;5032255;28;20145;-60
2023/11/16 06:06:59;;;;;;;12.15;8.70;;;;;;;;;;5038295;28;20040;-61
2023/11/16 06:09:25;;;;;;;13.00;8.10;;;;;;;;;;5037516;28;20548;-61
2023/11/16 06:11:52;;;;;;;13.82;8.13;;;;;;;;;;5034307;28;20060;-62
2023/11/16 06:14:21;;;;;;;16.88;8.25;;;;;;;;;;5044827;28;20558;-61
2023/11/16 06:16:48;;;;;;;13.32;8.02;;;;;;;;;;5021993;28;20130;-61
2023/11/16 06:19:15;;;;;;;19.35;7.85;;;;;;;;;;5043803;28;20122;-65
2023/11/16 06:21:41;;;;;;;13.32;7.72;;;;;;;;;;5024402;28;20806;-61
2023/11/16 06:24:10;;;;;;;14.35;7.63;;;;;;;;;;5033456;28;20100;-62
2023/11/16 06:26:37;;;;;;;12.30;7.65;;;;;;;;;;5039879;28;20398;-61
2023/11/16 06:29:06;;;;;;;16.50;6.95;;;;;;;;;;5036304;28;20028;-60
2023/11/16 06:31:32;;;;;;;12.35;6.22;;;;;;;;;;5041663;28;20029;-60
2023/11/16 06:34:00;;;;;;;10.52;5.80;;;;;;;;;;5039301;28;20231;-60
2023/11/16 06:36:26;;;;;;;13.45;6.70;;;;;;;;;;5035377;28;20017;-61
2023/11/16 06:38:52;;;;;;;13.48;7.60;;;;;;;;;;5042225;28;20017;-61
2023/11/16 06:41:19;;;;;;;10.02;6.13;;;;;;;;;;5024905;28;20025;-61
2023/11/16 06:43:46;;;;;;;11.45;6.22;;;;;;;;;;5029738;28;20029;-62
2023/11/16 06:46:12;;;;;;;13.98;6.75;;;;;;;;;;5040580;28;20517;-63
2023/11/16 06:48:41;;;;;;;12.82;6.53;;;;;;;;;;5044402;28;20021;-62
2023/11/16 06:51:08;;;;;;;16.30;6.50;;;;;;;;;;5037308;28;20036;-63
2023/11/16 06:53:34;;;;;;;10.98;7.10;;;;;;;;;;5038215;28;20025;-63
2023/11/16 06:56:00;;;;;;;11.38;6.03;;;;;;;;;;5034223;28;20514;-61
2023/11/16 06:58:26;;;;;;;10.00;7.20;;;;;;;;;;5039468;28;20124;-61
2023/11/16 07:00:54;;;;;;;10.15;6.10;;;;;;;;;;5038627;28;20394;-62
2023/11/16 07:03:21;;;;;;;11.55;6.38;;;;;;;;;;5038394;28;20056;-62
2023/11/16 07:05:50;;;;;;;11.65;5.97;;;;;;;;;;5011946;28;20115;-63
2023/11/16 07:08:16;;;;;;;10.68;6.22;;;;;;;;;;5035259;28;20105;-62
2023/11/16 07:10:43;;;;;;;11.05;6.53;;;;;;;;;;5030793;28;20044;-63
2023/11/16 07:13:14;;;;;;;13.55;6.93;;;;;;;;;;5035601;28;20066;-63
2023/11/16 07:15:44;;;;;;;15.18;6.97;;;;;;;;;;5036889;28;20052;-63
2023/11/16 07:18:10;;;;;;;14.13;8.10;;;;;;;;;;5013047;28;21152;-62
2023/11/16 07:20:37;;;;;;;13.30;6.55;;;;;;;;;;5034890;28;20388;-62
2023/11/16 07:23:03;;;;;;;11.93;6.75;;;;;;;;;;5010689;28;20029;-62
2023/11/16 07:25:29;;;;;;;12.80;7.18;;;;;;;;;;5032612;28;20037;-62
2023/11/16 07:27:57;;;;;;;10.95;7.03;;;;;;;;;;5034830;28;20037;-63
2023/11/16 07:30:24;;;;;;;10.93;6.55;;;;;;;;;;5029853;28;20094;-63
2023/11/16 07:32:51;;;;;;;14.13;7.28;;;;;;;;;;5019493;28;20025;-63
2023/11/16 07:35:17;;;;;;;14.23;6.38;;;;;;;;;;5032802;28;20034;-62
2023/11/16 07:37:47;;;;;;;12.48;6.68;;;;;;;;;;5041181;28;20107;-63
2023/11/16 07:40:14;;;;;;;13.88;6.97;;;;;;;;;;5026380;28;20071;-63
2023/11/16 07:42:40;;;;;;;15.60;7.28;;;;;;;;;;5028269;28;20446;-63
2023/11/16 07:45:09;;;;;;;17.60;8.07;;;;;;;;;;5022506;28;20021;-62
2023/11/16 07:47:37;;;;;;;14.70;7.32;;;;;;;;;;5012386;28;20063;-63
2023/11/16 07:50:05;;;;;;;11.15;6.90;;;;;;;;;;5037519;28;20094;-62
2023/11/16 07:52:34;;;;;;;14.25;7.20;;;;;;;;;;5034517;28;20037;-62
2023/11/16 07:55:00;;;;;;;12.85;7.25;;;;;;;;;;5036103;28;20021;-62
2023/11/16 07:57:27;;;;;;;16.48;7.93;;;;;;;;;;5034374;28;20031;-63
2023/11/16 07:59:54;;;;;;;12.35;6.85;;;;;;;;;;5036082;28;20021;-62
2023/11/16 08:02:38;;;;;;;11.93;7.40;;;;;;;;;;5031948;28;20124;-62
2023/11/16 08:05:05;;;;;;;18.88;7.90;;;;;;;;;;5012109;28;20648;-62
2023/11/16 08:07:32;;;;;;;10.93;6.00;;;;;;;;;;5034788;28;20112;-63
2023/11/16 08:09:58;;;;;;;14.57;7.43;;;;;;;;;;5040112;28;20497;-62
2023/11/16 08:12:27;;;;;;;10.18;6.95;;;;;;;;;;5038683;28;20048;-62
2023/11/16 08:14:53;;;;;;;11.45;6.60;;;;;;;;;;5032919;28;20030;-62
2023/11/16 08:17:19;;;;;;;14.73;7.03;;;;;;;;;;5033714;28;20312;-63
2023/11/16 08:19:45;;;;;;;9.77;6.32;;;;;;;;;;5035533;28;20027;-62
2023/11/16 08:22:13;;;;;;;11.43;6.70;;;;;;;;;;5029977;28;20071;-63
2023/11/16 08:24:39;;;;;;;8.57;6.53;;;;;;;;;;5034959;28;20070;-63
2023/11/16 08:27:11;;;;;;;15.15;7.53;;;;;;;;;;5023662;28;20052;-62
2023/11/16 08:29:37;;;;;;;16.23;7.45;;;;;;;;;;5031359;28;20050;-62
2023/11/16 08:32:04;;;;;;;9.40;6.82;;;;;;;;;;5036440;28;20372;-62
2023/11/16 08:34:31;;;;;;;15.35;6.97;;;;;;;;;;5039748;28;20021;-62
2023/11/16 08:36:57;;;;;;;15.95;6.95;;;;;;;;;;5014820;28;20079;-62
2023/11/16 08:39:26;;;;;;;12.07;7.35;;;;;;;;;;5041013;28;20047;-61
2023/11/16 08:41:52;;;;;;;10.85;6.60;;;;;;;;;;5026855;28;20025;-61
2023/11/16 08:44:19;;;;;;;11.10;6.55;;;;;;;;;;5040304;28;20033;-61
2023/11/16 08:46:52;;;;;;;7.68;6.30;;;;;;;;;;5036757;28;20041;-62
2023/11/16 08:49:18;;;;;;;8.73;6.32;;;;;;;;;;5041320;28;20055;-61
2023/11/16 08:51:47;;;;;;;12.70;6.30;;;;;;;;;;5013163;28;20107;-61
2023/11/16 08:54:14;;;;;;;10.70;7.53;;;;;;;;;;5020042;28;20032;-62
2023/11/16 08:56:42;;;;;;;12.85;7.22;;;;;;;;;;5034469;28;20611;-62
2023/11/16 08:59:08;;;;;;;11.45;6.70;;;;;;;;;;5041980;28;20128;-62
2023/11/16 09:01:37;;;;;;;11.50;7.20;;;;;;;;;;5031189;28;20032;-62
2023/11/16 09:04:04;;;;;;;23.45;9.65;;;;;;;;;;5036350;28;20049;-62
2023/11/16 09:06:33;;;;;;;27.00;14.20;;;;;;;;;;5005879;28;20164;-62
2023/11/16 09:09:08;;;;;;;12.68;8.40;;;;;;;;;;5040257;28;20072;-62
2023/11/16 09:11:35;;;;;;;11.35;7.90;;;;;;;;;;5039647;28;20124;-62
2023/11/16 09:14:02;;;;;;;10.52;6.32;;;;;;;;;;5040320;28;20442;-62
2023/11/16 09:16:29;;;;;;;10.75;6.40;;;;;;;;;;5036106;28;20039;-62
2023/11/16 09:18:55;;;;;;;10.55;5.93;;;;;;;;;;5021485;28;20445;-62
2023/11/16 09:21:25;;;;;;;12.32;5.82;;;;;;;;;;5034681;28;20029;-62
2023/11/16 09:23:52;;;;;;;7.57;5.50;;;;;;;;;;5041107;28;20442;-62
2023/11/16 09:26:18;;;;;;;5.95;5.35;;;;;;;;;;5030951;28;20087;-66
2023/11/16 09:28:44;;;;;;;12.40;5.97;;;;;;;;;;5036020;28;20051;-62
2023/11/16 09:31:11;;;;;;;9.50;5.57;;;;;;;;;;5011044;28;20091;-64
2023/11/16 09:33:41;;;;;;;8.50;4.93;;;;;;;;;;5031446;28;20569;-63
2023/11/16 09:36:13;;;;;;;8.95;4.88;;;;;;;;;;5031638;28;20555;-67
2023/11/16 09:38:42;;;;;;;7.15;4.93;;;;;;;;;;5020225;28;20029;-63
2023/11/16 09:41:15;;;;;;;8.30;5.07;;;;;;;;;;5036043;28;20040;-64
2023/11/16 09:43:41;;;;;;;11.98;6.20;;;;;;;;;;5035326;28;20082;-62
2023/11/16 09:46:11;;;;;;;7.93;5.43;;;;;;;;;;5029032;28;20037;-62
2023/11/16 09:48:39;;;;;;;9.77;4.93;;;;;;;;;;5033683;28;20086;-63
2023/11/16 09:51:08;;;;;;;12.88;5.43;;;;;;;;;;5014367;28;20114;-62
2023/11/16 09:53:35;;;;;;;7.93;5.28;;;;;;;;;;5030490;28;20040;-62
2023/11/16 09:56:04;;;;;;;15.02;5.90;;;;;;;;;;5033262;28;20041;-62
2023/11/16 09:58:36;;;;;;;7.07;4.93;;;;;;;;;;5037580;28;20036;-63
2023/11/16 10:01:10;;;;;;;8.93;4.97;;;;;;;;;;5034883;28;20174;-63
2023/11/16 10:03:38;;;;;;;11.30;6.57;;;;;;;;;;5038171;28;20249;-62
2023/11/16 10:06:05;;;;;;;11.10;6.47;;;;;;;;;;5039203;28;20033;-63
2023/11/16 10:08:34;;;;;;;10.35;7.45;;;;;;;;;;5029802;28;20191;-63
2023/11/16 10:11:06;;;;;;;14.80;9.30;;;;;;;;;;5032487;28;20124;-63
2023/11/16 10:13:32;;;;;;;15.00;10.00;;;;;;;;;;5031955;28;20302;-63
2023/11/16 10:16:04;;;;;;;31.20;16.48;;;;;;;;;;5041430;28;20076;-63
2023/11/16 10:18:36;;;;;;;103.28;48.53;;;;;;;;;;5037185;28;20025;-63
2023/11/16 10:21:06;;;;;;;83.20;41.95;;;;;;;;;;5014105;28;20691;-63
2023/11/16 10:23:33;;;;;;;76.60;41.65;;;;;;;;;;5045905;28;20059;-64
2023/11/16 10:25:59;;;;;;;52.83;30.80;;;;;;;;;;5014398;28;20548;-63
2023/11/16 10:28:26;;;;;;;47.28;26.00;;;;;;;;;;5039996;28;20024;-62
2023/11/16 10:30:58;;;;;;;28.27;20.00;;;;;;;;;;5034974;28;20507;-62
2023/11/16 10:33:26;;;;;;;27.83;14.73;;;;;;;;;;5037266;28;20087;-61
2023/11/16 10:35:53;;;;;;;25.42;11.43;;;;;;;;;;5036476;28;20030;-62
2023/11/16 10:38:23;;;;;;;21.75;13.07;;;;;;;;;;5036638;28;20384;-63
2023/11/16 10:40:52;;;;;;;17.05;11.00;;;;;;;;;;5038256;28;20438;-62
2023/11/16 10:43:25;;;;;;;25.70;13.50;;;;;;;;;;5017563;28;20025;-62
2023/11/16 10:45:55;;;;;;;19.05;11.50;;;;;;;;;;5047576;28;20029;-62
2023/11/16 10:48:22;;;;;;;17.40;10.63;;;;;;;;;;5013540;28;20033;-62
2023/11/16 10:50:48;;;;;;;23.55;11.52;;;;;;;;;;5036919;28;20039;-62
2023/11/16 10:53:22;;;;;;;20.58;9.88;;;;;;;;;;5030185;28;20019;-62
2023/11/16 10:55:49;;;;;;;15.05;9.18;;;;;;;;;;5032465;28;21040;-62
2023/11/16 10:58:20;;;;;;;19.85;9.15;;;;;;;;;;5044521;28;20021;-62
2023/11/16 11:00:48;;;;;;;26.05;11.15;;;;;;;;;;5038756;28;21079;-62
2023/11/16 11:03:16;;;;;;;17.48;10.90;;;;;;;;;;5034249;28;20415;-62
2023/11/16 11:05:48;;;;;;;24.67;11.32;;;;;;;;;;5037531;28;20038;-67
2023/11/16 11:08:17;;;;;;;15.85;10.02;;;;;;;;;;5039845;28;20029;-62
2023/11/16 11:10:47;;;;;;;15.50;8.45;;;;;;;;;;5032983;28;20060;-62
2023/11/16 11:13:16;;;;;;;12.90;7.65;;;;;;;;;;5036576;28;20033;-62
2023/11/16 11:15:48;;;;;;;8.93;6.35;;;;;;;;;;5015966;28;20021;-63
2023/11/16 11:18:24;;;;;;;12.55;6.68;;;;;;;;;;5039452;28;20056;-63
2023/11/16 11:20:53;;;;;;;11.77;5.90;;;;;;;;;;5032666;28;20415;-63
2023/11/16 11:23:19;;;;;;;9.77;6.28;;;;;;;;;;5043873;28;20032;-63
2023/11/16 11:25:48;;;;;;;16.80;7.50;;;;;;;;;;5014427;28;20032;-63
2023/11/16 11:28:15;;;;;;;14.60;9.50;;;;;;;;;;5032297;28;20071;-64
2023/11/16 11:31:10;;;;;;;13.52;9.40;;;;;;;;;;5032182;28;20037;-62
2023/11/16 11:33:39;;;;;;;15.77;8.07;;;;;;;;;;5038588;28;20111;-62
2023/11/16 11:36:09;;;;;;;12.23;8.20;;;;;;;;;;5012489;28;20060;-62
2023/11/16 11:38:38;;;;;;;8.43;6.57;;;;;;;;;;5031008;28;20061;-62
2023/11/16 11:41:11;;;;;;;11.13;6.03;;;;;;;;;;5040332;28;20025;-62
2023/11/16 11:43:38;;;;;;;12.30;4.75;;;;;;;;;;5037754;28;20387;-62
2023/11/16 11:46:11;;;;;;;7.97;5.05;;;;;;;;;;5040322;28;20028;-62
2023/11/16 11:48:40;;;;;;;11.68;4.43;;;;;;;;;;5032871;28;21531;-64
2023/11/16 11:51:10;;;;;;;5.90;3.90;;;;;;;;;;5031076;28;20125;-62
2023/11/16 11:53:37;;;;;;;10.73;3.80;;;;;;;;;;5031537;28;20021;-63
2023/11/16 11:56:06;;;;;;;6.45;3.50;;;;;;;;;;5032943;28;20043;-62
2023/11/16 11:58:32;;;;;;;9.25;3.75;;;;;;;;;;5033270;28;20513;-63
2023/11/16 12:01:00;;;;;;;9.25;3.67;;;;;;;;;;5033320;28;20052;-62
2023/11/16 12:03:27;;;;;;;9.35;3.50;;;;;;;;;;5037296;28;20052;-62
2023/11/16 12:05:58;;;;;;;6.63;3.58;;;;;;;;;;5037539;28;20052;-62
2023/11/16 12:08:46;;;;;;;6.22;3.35;;;;;;;;;;5012867;28;20495;-62
2023/11/16 12:11:17;;;;;;;6.65;3.83;;;;;;;;;;5032649;28;20061;-62
2023/11/16 12:13:44;;;;;;;5.03;3.85;;;;;;;;;;5033876;28;20071;-62
2023/11/16 12:16:11;;;;;;;6.32;3.38;;;;;;;;;;5008773;28;20107;-62
2023/11/16 12:18:41;;;;;;;8.38;3.28;;;;;;;;;;5017780;28;20074;-64
2023/11/16 12:21:17;;;;;;;6.63;3.30;;;;;;;;;;5032100;28;20034;-61
2023/11/16 12:23:50;;;;;;;4.32;3.10;;;;;;;;;;5014243;28;20157;-61
2023/11/16 12:26:24;;;;;;;7.60;2.80;;;;;;;;;;5039227;28;20553;-62
2023/11/16 12:28:53;;;;;;;6.38;2.60;;;;;;;;;;5014137;28;20116;-67
2023/11/16 12:31:21;;;;;;;7.95;2.30;;;;;;;;;;5033322;28;20035;-61
2023/11/16 12:33:47;;;;;;;8.27;3.08;;;;;;;;;;5010739;28;20025;-70
2023/11/16 12:36:31;;;;;;;9.23;2.75;;;;;;;;;;5038824;28;20021;-61
2023/11/16 12:38:57;;;;;;;5.32;2.70;;;;;;;;;;5016868;28;20029;-61
2023/11/16 12:41:24;;;;;;;6.82;2.53;;;;;;;;;;5019016;28;20033;-61
2023/11/16 12:43:50;;;;;;;3.00;2.70;;;;;;;;;;5034674;28;20029;-61
2023/11/16 12:46:17;;;;;;;6.97;2.75;;;;;;;;;;5040842;28;20620;-65
2023/11/16 12:48:44;;;;;;;8.77;3.30;;;;;;;;;;5035133;28;20025;-62
2023/11/16 12:51:14;;;;;;;4.45;3.30;;;;;;;;;;5036180;28;20028;-61
2023/11/16 12:53:42;;;;;;;8.50;3.47;;;;;;;;;;5031031;28;20028;-61
2023/11/16 12:56:08;;;;;;;16.95;7.57;;;;;;;;;;5038241;28;20033;-62
2023/11/16 12:58:37;;;;;;;15.63;8.57;;;;;;;;;;5041920;28;20025;-61
2023/11/16 13:01:04;;;;;;;15.35;6.70;;;;;;;;;;5035416;28;20043;-62
2023/11/16 13:03:31;;;;;;;13.35;7.43;;;;;;;;;;5031758;28;20420;-60
2023/11/16 13:06:05;;;;;;;6.72;4.53;;;;;;;;;;5014042;28;20041;-60
2023/11/16 13:08:34;;;;;;;7.80;3.28;;;;;;;;;;5029899;28;20250;-60
2023/11/16 13:11:01;;;;;;;6.82;3.17;;;;;;;;;;5033929;28;20037;-61
2023/11/16 13:13:27;;;;;;;8.65;2.63;;;;;;;;;;5031274;28;20017;-60
2023/11/16 13:15:53;;;;;;;6.95;3.50;;;;;;;;;;5029277;28;20116;-60
2023/11/16 13:18:19;;;;;;;8.23;3.08;;;;;;;;;;5013189;28;20047;-60
2023/11/16 13:20:46;;;;;;;5.47;3.20;;;;;;;;;;5037461;28;20032;-60
2023/11/16 13:23:12;;;;;;;4.53;2.85;;;;;;;;;;5030250;28;20041;-61
2023/11/16 13:25:39;;;;;;;2.80;2.55;;;;;;;;;;5025534;28;20053;-61
2023/11/16 13:28:05;;;;;;;8.93;2.65;;;;;;;;;;5016636;28;20056;-61
2023/11/16 13:30:38;;;;;;;8.23;2.88;;;;;;;;;;5028968;28;20091;-60
2023/11/16 13:33:05;;;;;;;6.15;2.67;;;;;;;;;;5023400;28;20021;-60
2023/11/16 13:35:31;;;;;;;3.67;2.15;;;;;;;;;;5029029;28;20044;-61
2023/11/16 13:37:57;;;;;;;8.27;2.80;;;;;;;;;;5026408;28;20033;-61
2023/11/16 13:40:23;;;;;;;8.85;2.60;;;;;;;;;;5029175;28;20102;-63
2023/11/16 13:42:50;;;;;;;6.75;2.55;;;;;;;;;;5033506;28;20033;-61
2023/11/16 13:45:20;;;;;;;4.22;2.83;;;;;;;;;;5032882;28;20037;-62
2023/11/16 13:47:47;;;;;;;3.55;2.65;;;;;;;;;;5032694;28;20021;-65
2023/11/16 13:50:14;;;;;;;5.72;3.08;;;;;;;;;;5025864;28;20783;-62
2023/11/16 13:52:41;;;;;;;5.53;3.03;;;;;;;;;;5029998;28;20116;-63
2023/11/16 13:55:08;;;;;;;9.10;3.58;;;;;;;;;;5034409;28;20711;-62
2023/11/16 13:57:40;;;;;;;6.50;3.15;;;;;;;;;;5037340;28;20029;-62
2023/11/16 14:00:11;;;;;;;7.82;2.90;;;;;;;;;;5018825;28;20510;-63
2023/11/16 14:02:41;;;;;;;4.32;3.47;;;;;;;;;;5035535;28;20725;-64
2023/11/16 14:05:11;;;;;;;6.22;3.35;;;;;;;;;;5016878;28;20043;-62
2023/11/16 14:07:38;;;;;;;3.88;2.50;;;;;;;;;;5031760;28;20683;-61
2023/11/16 14:10:09;;;;;;;8.57;2.85;;;;;;;;;;5032193;28;20647;-62
2023/11/16 14:12:37;;;;;;;4.93;2.45;;;;;;;;;;5030227;28;20060;-61
2023/11/16 14:15:03;;;;;;;4.18;2.70;;;;;;;;;;5035803;28;20504;-60
2023/11/16 14:17:29;;;;;;;6.65;3.53;;;;;;;;;;5016132;28;20033;-61
2023/11/16 14:19:55;;;;;;;6.20;2.63;;;;;;;;;;5033874;28;20171;-61
2023/11/16 14:22:22;;;;;;;8.80;4.18;;;;;;;;;;5035810;28;20125;-61
2023/11/16 14:24:48;;;;;;;10.15;3.17;;;;;;;;;;5033532;28;20041;-62
2023/11/16 14:27:14;;;;;;;8.70;4.20;;;;;;;;;;5028247;28;20398;-61
2023/11/16 14:29:40;;;;;;;4.57;2.83;;;;;;;;;;5030647;28;20037;-61
2023/11/16 14:32:06;;;;;;;4.03;2.92;;;;;;;;;;5014014;28;20033;-61
2023/11/16 14:34:32;;;;;;;4.45;2.60;;;;;;;;;;5031520;28;20032;-61